Hague, Canada
Current Conditions -  °F | °C
As of 9:00 PM on Wednesday 22 Oct 2014 (Local Time) from CYXE Reporting Station
Clear Clear  
Wind Chill: 34°   Ceiling: Unl
Heat Index: 37°   Visibility: 15mi
Dew Point: 34°   Wind: 5mph
Humidity: 87%   Direction: 210°SSW
Pressure: 29.76"   Gusts: NA
Location:  52.51°N, 106.42°W
Report Text: CYXE 230300Z 21004KT 15SM SKC 03/01 A2976 RMK SLP096
Loading
Personal Weather Stations






























Interactive Weather Map
Tropical Storm Tracking
New forecast layout! Learn more

10-Day Weather Forecast

Advertisements
Track Severe Weather on mobile